YM South — BLIQ — position and weather

sailwx.info

Track history (hours):
 
Tides and Currents Weather Stations Pressure Air Temp Water Temp Dewpoint Dewpoint Depression Visibility Wind Speed Wind Dir Waves Ship Positions

YM South

Last reported at 2013-Dec-06 09:33 UTC. Time now 2014-Nov-29 01:19 UTC.
Position N 01°17' E 103°46'.
Warning: this ship's position is months out of date.

Length 276 m; draft 11.6 m.

Type: Ship (hazmat cat B). MMSI: 416250000.

Date/timePositionNaut miles runAvg speedWind from/ knotsBaromVisibWave heightAir tempDewpointWater temp
2013-Dec-06 09:33N 01°17' E 103°46'3 3.5
2013-Dec-06 08:34N 01°14' E 103°47'6 6.1
2013-Dec-06 07:33N 01°14' E 103°53'  
2013-Dec-03 04:33N 22°08' E 114°14'2410.4
2013-Dec-03 02:14N 22°23' E 113°54'4 6.4
2013-Dec-03 01:33N 22°27' E 113°53'0 0.2
2013-Dec-03 00:33N 22°27' E 113°53'0 0.0
2013-Dec-02 23:28N 22°27' E 113°53'0 0.0
2013-Dec-02 22:21N 22°27' E 113°53'0 0.0
2013-Dec-02 21:33N 22°27' E 113°53'0 0.0
2013-Dec-02 20:31N 22°27' E 113°53'0 0.0
2013-Dec-02 19:30N 22°27' E 113°53'0 0.0
2013-Dec-02 18:30N 22°27' E 113°53'0 0.0
2013-Dec-02 17:23N 22°27' E 113°53'0 0.1
2013-Dec-02 16:28N 22°27' E 113°53'2 2.0
2013-Dec-02 15:33N 22°25' E 113°53'9 9.3
2013-Dec-02 14:33N 22°21' E 114°02'62315.2
2013-Nov-30 21:33N 29°57' E 121°56'1 0.4
2013-Nov-30 19:31N 29°56' E 121°56'0 0.0
2013-Nov-30 18:19N 29°56' E 121°56'0 0.0
2013-Nov-30 15:20N 29°56' E 121°56'0 0.0
2013-Nov-30 13:32N 29°56' E 121°56'2 1.9
2013-Nov-30 12:32N 29°58' E 121°57'84 4.3
2013-Nov-29 17:10N 31°20' E 121°41'15 1.0
2013-Nov-29 01:28N 31°15' E 121°58'  
Track history (hours):
 
Tides and Currents Weather Stations Pressure Air Temp Water Temp Dewpoint Dewpoint Depression Visibility Wind Speed Wind Dir Waves Ship Positions

YM South

Last reported at 2013-Dec-06 09:33 UTC. Time now 2014-Nov-29 01:19 UTC.
Position N 01°17' E 103°46'.
Warning: this ship's position is months out of date.

Length 276 m; draft 11.6 m.

Type: Ship (hazmat cat B). MMSI: 416250000.

Date/timePositionNaut miles runAvg speedWind from/ knotsBaromVisibWave heightAir tempDewpointWater temp
2013-Dec-06 09:33N 01°17' E 103°46'3 3.5
2013-Dec-06 08:34N 01°14' E 103°47'6 6.1
2013-Dec-06 07:33N 01°14' E 103°53'  
2013-Dec-03 04:33N 22°08' E 114°14'2410.4
2013-Dec-03 02:14N 22°23' E 113°54'4 6.4
2013-Dec-03 01:33N 22°27' E 113°53'0 0.2
2013-Dec-03 00:33N 22°27' E 113°53'0 0.0
2013-Dec-02 23:28N 22°27' E 113°53'0 0.0
2013-Dec-02 22:21N 22°27' E 113°53'0 0.0
2013-Dec-02 21:33N 22°27' E 113°53'0 0.0
2013-Dec-02 20:31N 22°27' E 113°53'0 0.0
2013-Dec-02 19:30N 22°27' E 113°53'0 0.0
2013-Dec-02 18:30N 22°27' E 113°53'0 0.0
2013-Dec-02 17:23N 22°27' E 113°53'0 0.1
2013-Dec-02 16:28N 22°27' E 113°53'2 2.0
2013-Dec-02 15:33N 22°25' E 113°53'9 9.3
2013-Dec-02 14:33N 22°21' E 114°02'62315.2
2013-Nov-30 21:33N 29°57' E 121°56'1 0.4
2013-Nov-30 19:31N 29°56' E 121°56'0 0.0
2013-Nov-30 18:19N 29°56' E 121°56'0 0.0
2013-Nov-30 15:20N 29°56' E 121°56'0 0.0
2013-Nov-30 13:32N 29°56' E 121°56'2 1.9
2013-Nov-30 12:32N 29°58' E 121°57'84 4.3
2013-Nov-29 17:10N 31°20' E 121°41'15 1.0
2013-Nov-29 01:28N 31°15' E 121°58'  

Dump ship's entire track history